createdAt,value
2022-09-09T00:00:19.689Z,18.82
2022-09-09T00:03:29.659Z,18.80
2022-09-09T00:06:45.540Z,18.76
2022-09-09T00:09:59.651Z,18.73
2022-09-09T00:13:18.276Z,18.72
2022-09-09T00:16:28.411Z,18.67
2022-09-09T00:19:41.200Z,18.65
2022-09-09T00:23:00.683Z,18.63
2022-09-09T00:26:15.946Z,18.62
2022-09-09T00:29:32.585Z,18.60
2022-09-09T00:32:40.432Z,18.58
2022-09-09T00:35:49.766Z,18.57
2022-09-09T00:38:59.731Z,18.56
2022-09-09T00:42:17.438Z,18.56
2022-09-09T00:45:41.982Z,18.54
2022-09-09T00:48:55.443Z,18.49
2022-09-09T00:52:19.570Z,18.49
2022-09-09T00:55:41.465Z,18.44
2022-09-09T00:59:01.159Z,18.41
2022-09-09T01:02:14.470Z,18.42
2022-09-09T01:05:27.704Z,18.41
2022-09-09T01:09:07.302Z,18.41
2022-09-09T01:12:17.851Z,18.40
2022-09-09T01:15:29.033Z,18.39
2022-09-09T01:18:38.084Z,18.38
2022-09-09T01:22:02.518Z,18.36
2022-09-09T01:26:03.215Z,18.33
2022-09-09T01:29:11.727Z,18.31
2022-09-09T01:32:51.413Z,18.29
2022-09-09T01:36:02.861Z,18.29
2022-09-09T01:39:08.908Z,18.26
2022-09-09T01:42:17.443Z,18.25
2022-09-09T01:45:24.320Z,18.23
2022-09-09T01:48:30.667Z,18.20
2022-09-09T01:51:37.017Z,18.19
2022-09-09T01:54:43.040Z,18.18
2022-09-09T01:57:58.542Z,18.17
2022-09-09T02:01:15.447Z,18.16
2022-09-09T02:04:33.646Z,18.16
2022-09-09T02:07:43.539Z,18.15
2022-09-09T02:10:56.102Z,18.13
2022-09-09T02:14:06.955Z,18.11
2022-09-09T02:17:16.838Z,18.09
2022-09-09T02:20:25.339Z,18.08
2022-09-09T02:23:32.905Z,18.06
2022-09-09T02:26:41.610Z,18.04
2022-09-09T02:29:48.781Z,18.04
2022-09-09T02:32:59.076Z,18.02
2022-09-09T02:36:08.094Z,18.02
2022-09-09T02:39:14.726Z,18.01
2022-09-09T02:42:20.658Z,18.00
2022-09-09T02:45:27.283Z,18.00
2022-09-09T02:48:38.968Z,17.98
2022-09-09T02:51:56.442Z,17.97
2022-09-09T02:55:12.318Z,17.96
2022-09-09T02:58:20.490Z,17.92
2022-09-09T03:01:26.846Z,17.90
2022-09-09T03:04:33.405Z,17.87
2022-09-09T03:07:40.962Z,17.84
2022-09-09T03:10:46.843Z,17.83
2022-09-09T03:13:52.742Z,17.81
2022-09-09T03:16:57.624Z,17.80
2022-09-09T03:20:04.017Z,17.79
2022-09-09T03:23:15.017Z,17.78
2022-09-09T03:26:21.742Z,17.74
2022-09-09T03:29:26.036Z,17.71
2022-09-09T03:32:32.447Z,17.66
2022-09-09T03:35:38.354Z,17.62
2022-09-09T03:38:44.482Z,17.59
2022-09-09T03:41:50.347Z,17.57
2022-09-09T03:44:58.914Z,17.53
2022-09-09T03:48:06.495Z,17.51
2022-09-09T03:51:12.375Z,17.48
2022-09-09T03:54:18.397Z,17.44
2022-09-09T03:57:24.854Z,17.42
2022-09-09T04:00:31.708Z,17.40
2022-09-09T04:03:37.660Z,17.37
2022-09-09T04:06:41.947Z,17.34
2022-09-09T04:09:47.852Z,17.30
2022-09-09T04:12:53.730Z,17.25
2022-09-09T04:16:01.519Z,17.22
2022-09-09T04:19:08.830Z,17.18
2022-09-09T04:22:14.735Z,17.15
2022-09-09T04:25:20.687Z,17.12
2022-09-09T04:28:28.893Z,17.10
2022-09-09T04:31:35.839Z,17.10
2022-09-09T04:34:42.354Z,17.08
2022-09-09T04:37:49.045Z,17.07
2022-09-09T04:40:55.397Z,17.07
2022-09-09T04:44:01.872Z,17.08
2022-09-09T04:47:08.023Z,17.10
2022-09-09T04:50:14.181Z,17.11
2022-09-09T04:53:20.226Z,17.13
2022-09-09T04:56:24.597Z,17.14
2022-09-09T04:59:31.302Z,17.17
2022-09-09T05:02:39.168Z,17.20
2022-09-09T05:05:45.797Z,17.25
2022-09-09T05:08:51.785Z,17.29
2022-09-09T05:11:56.074Z,17.35
2022-09-09T05:15:02.747Z,17.38
2022-09-09T05:18:09.806Z,17.41
2022-09-09T05:21:17.617Z,17.45
2022-09-09T05:24:24.272Z,17.50
2022-09-09T05:27:32.520Z,17.56
2022-09-09T05:30:38.411Z,17.59
2022-09-09T05:33:47.139Z,17.62
2022-09-09T05:36:53.873Z,17.66
2022-09-09T05:40:00.266Z,17.67
2022-09-09T05:43:06.321Z,17.67
2022-09-09T05:46:11.313Z,17.66
2022-09-09T05:49:17.246Z,17.65
2022-09-09T05:52:21.725Z,17.65
2022-09-09T05:55:27.786Z,17.66
2022-09-09T05:58:34.478Z,17.67
2022-09-09T06:01:41.609Z,17.68
2022-09-09T06:04:47.968Z,17.72
2022-09-09T06:07:56.814Z,17.73
2022-09-09T06:11:07.500Z,17.77
2022-09-09T06:14:13.410Z,17.79
2022-09-09T06:17:19.386Z,17.79
2022-09-09T06:20:24.055Z,17.81
2022-09-09T06:23:30.815Z,17.80
2022-09-09T06:26:38.734Z,17.83
2022-09-09T06:29:44.598Z,17.89
2022-09-09T06:32:51.086Z,17.93
2022-09-09T06:35:58.309Z,17.98
2022-09-09T06:39:04.995Z,18.03
2022-09-09T06:42:11.190Z,18.14
2022-09-09T06:45:17.107Z,18.25
2022-09-09T06:48:21.322Z,18.44
2022-09-09T06:51:28.863Z,18.65
2022-09-09T06:54:34.762Z,18.83
2022-09-09T06:57:38.974Z,18.98
2022-09-09T07:00:44.877Z,19.09
2022-09-09T07:03:51.308Z,19.30
2022-09-09T07:06:57.148Z,19.51
2022-09-09T07:10:01.398Z,19.72
2022-09-09T07:13:08.737Z,19.94
2022-09-09T07:16:16.821Z,20.17
2022-09-09T07:19:22.718Z,20.30
2022-09-09T07:22:26.925Z,20.41
2022-09-09T07:25:32.851Z,20.52
2022-09-09T07:28:37.189Z,20.65
2022-09-09T07:31:43.894Z,20.80
2022-09-09T07:34:51.318Z,20.96
2022-09-09T07:37:57.274Z,21.02
2022-09-09T07:41:12.764Z,21.05
2022-09-09T07:44:20.210Z,21.05
2022-09-09T07:47:26.071Z,21.04
2022-09-09T07:50:30.597Z,21.14
2022-09-09T07:53:37.783Z,21.22
2022-09-09T07:56:44.286Z,21.32
2022-09-09T07:59:50.497Z,21.47
2022-09-09T08:02:56.423Z,21.60
2022-09-09T08:06:07.371Z,21.74
2022-09-09T08:09:13.593Z,21.71
2022-09-09T08:12:20.042Z,21.62
2022-09-09T08:15:25.915Z,21.57
2022-09-09T08:18:32.042Z,21.51
2022-09-09T08:21:41.205Z,21.39
2022-09-09T08:24:48.330Z,21.33
2022-09-09T08:27:55.372Z,21.25
2022-09-09T08:31:09.344Z,21.25
2022-09-09T08:34:16.133Z,21.27
2022-09-09T08:37:22.704Z,21.28
2022-09-09T08:40:36.133Z,21.31
2022-09-09T08:43:43.830Z,21.40
2022-09-09T08:47:03.203Z,21.47
2022-09-09T08:50:22.817Z,21.48
2022-09-09T08:53:39.126Z,21.54
2022-09-09T08:56:45.799Z,21.50
2022-09-09T08:59:52.894Z,21.49
2022-09-09T09:03:08.018Z,21.61
2022-09-09T09:06:29.419Z,21.81
2022-09-09T09:09:41.358Z,22.04
2022-09-09T09:12:50.163Z,22.17
2022-09-09T09:16:01.049Z,22.20
2022-09-09T09:19:07.166Z,22.16
2022-09-09T09:22:23.120Z,22.32
2022-09-09T09:25:33.814Z,22.48
2022-09-09T09:28:41.886Z,22.63
2022-09-09T09:31:51.054Z,22.72
2022-09-09T09:35:00.533Z,22.66
2022-09-09T09:41:46.775Z,22.68
2022-09-09T09:44:53.411Z,22.60
2022-09-09T09:48:08.490Z,22.60
2022-09-09T09:51:17.929Z,22.69
2022-09-09T09:54:30.485Z,22.62
2022-09-09T09:57:38.195Z,22.65
2022-09-09T10:00:52.363Z,22.79
2022-09-09T10:04:00.499Z,22.97
2022-09-09T10:07:14.580Z,23.18
2022-09-09T10:10:29.883Z,23.27
2022-09-09T10:13:46.965Z,23.36
2022-09-09T10:17:06.475Z,23.60
2022-09-09T10:20:34.789Z,23.83
2022-09-09T10:23:55.473Z,24.10
2022-09-09T10:27:08.790Z,24.32
2022-09-09T10:30:20.139Z,24.44
2022-09-09T10:33:35.242Z,24.60
2022-09-09T10:36:50.244Z,24.74
2022-09-09T10:40:04.817Z,24.86
2022-09-09T10:43:22.629Z,24.92
2022-09-09T10:46:37.236Z,25.07
2022-09-09T10:50:09.594Z,25.12
2022-09-09T10:53:24.923Z,25.21
2022-09-09T10:56:30.291Z,25.21
2022-09-09T10:59:42.715Z,25.09
2022-09-09T11:02:51.799Z,24.94
2022-09-09T11:06:02.118Z,25.13
2022-09-09T11:09:16.884Z,25.35
2022-09-09T11:12:23.799Z,25.59
2022-09-09T11:15:37.473Z,25.79
2022-09-09T11:18:46.797Z,25.66
2022-09-09T11:21:55.561Z,25.30
2022-09-09T11:25:06.177Z,24.79
2022-09-09T11:28:32.322Z,24.39
2022-09-09T11:31:47.604Z,24.16
2022-09-09T11:34:57.720Z,24.02
2022-09-09T11:38:27.475Z,24.03
2022-09-09T11:41:38.818Z,24.11
2022-09-09T11:44:45.366Z,24.14
2022-09-09T11:47:58.078Z,24.18
2022-09-09T11:51:11.052Z,24.12
2022-09-09T11:54:33.171Z,23.89
2022-09-09T11:57:40.631Z,23.67
2022-09-09T12:00:48.603Z,23.63
2022-09-09T12:03:58.284Z,23.62
2022-09-09T12:07:07.066Z,23.58
2022-09-09T12:10:28.629Z,23.53
2022-09-09T12:13:35.127Z,23.48
2022-09-09T12:16:41.441Z,23.45
2022-09-09T12:19:47.679Z,23.42
2022-09-09T12:23:09.935Z,23.38
2022-09-09T12:26:36.234Z,23.38
2022-09-09T12:29:51.222Z,23.56
2022-09-09T12:33:11.760Z,23.80
2022-09-09T12:36:21.783Z,23.98
2022-09-09T12:39:36.050Z,24.07
2022-09-09T12:42:44.793Z,24.10
2022-09-09T12:45:57.723Z,24.20
2022-09-09T12:49:03.779Z,24.22
2022-09-09T12:52:15.721Z,24.23
2022-09-09T12:55:26.325Z,24.25
2022-09-09T12:58:34.143Z,24.33
2022-09-09T13:01:40.252Z,24.44
2022-09-09T13:04:48.104Z,24.53
2022-09-09T13:07:54.410Z,24.63
2022-09-09T13:11:04.350Z,24.72
2022-09-09T13:14:20.215Z,24.88
2022-09-09T13:17:30.200Z,25.02
2022-09-09T13:20:36.216Z,25.10
2022-09-09T13:23:42.193Z,25.14
2022-09-09T13:26:57.267Z,25.13
2022-09-09T13:30:03.509Z,25.22
2022-09-09T13:33:24.294Z,25.24
2022-09-09T13:36:35.918Z,25.22
2022-09-09T13:39:41.932Z,25.23
2022-09-09T13:42:49.101Z,25.22
2022-09-09T13:46:00.512Z,25.23
2022-09-09T13:49:23.870Z,25.27
2022-09-09T13:52:33.026Z,25.33
2022-09-09T13:55:40.573Z,25.29
2022-09-09T13:58:46.438Z,25.18
2022-09-09T14:01:53.479Z,25.05
2022-09-09T14:04:59.359Z,24.88
2022-09-09T14:08:08.322Z,24.77
2022-09-09T14:11:16.099Z,24.79
2022-09-09T14:14:21.980Z,24.79
2022-09-09T14:17:32.434Z,24.78
2022-09-09T14:20:38.316Z,24.75
2022-09-09T14:23:44.200Z,24.64
2022-09-09T14:26:50.155Z,24.48
2022-09-09T14:29:56.349Z,24.42
2022-09-09T14:33:02.270Z,24.39
2022-09-09T14:36:08.998Z,24.32
2022-09-09T14:39:15.017Z,24.18
2022-09-09T14:42:20.971Z,24.03
2022-09-09T14:45:27.542Z,23.93
2022-09-09T14:48:35.065Z,23.82
2022-09-09T14:51:41.066Z,23.73
2022-09-09T14:54:46.912Z,23.69
2022-09-09T14:57:52.795Z,23.68
2022-09-09T15:01:03.902Z,23.69
2022-09-09T15:04:09.995Z,23.68
2022-09-09T15:07:15.902Z,23.70
2022-09-09T15:10:22.244Z,23.72
2022-09-09T15:13:28.266Z,23.70
2022-09-09T15:16:34.855Z,23.65
2022-09-09T15:19:43.235Z,23.55
2022-09-09T15:22:49.851Z,23.55
2022-09-09T15:25:57.631Z,23.50
2022-09-09T15:29:04.027Z,23.39
2022-09-09T15:32:10.558Z,23.27
2022-09-09T15:35:16.563Z,23.25
2022-09-09T15:38:22.462Z,23.28
2022-09-09T15:41:29.659Z,23.30
2022-09-09T15:44:43.611Z,23.28
2022-09-09T15:47:51.459Z,23.23
2022-09-09T15:51:19.575Z,23.15
2022-09-09T15:54:35.920Z,23.06
2022-09-09T15:57:41.782Z,23.00
2022-09-09T16:00:47.973Z,22.92
2022-09-09T16:03:54.004Z,22.85
2022-09-09T16:07:02.029Z,22.82
2022-09-09T16:10:09.339Z,22.78
2022-09-09T16:13:15.226Z,22.75
2022-09-09T16:16:24.843Z,22.70
2022-09-09T16:19:30.718Z,22.61
2022-09-09T16:22:36.657Z,22.51
2022-09-09T16:25:43.412Z,22.41
2022-09-09T16:28:49.754Z,22.31
2022-09-09T16:31:59.883Z,22.18
2022-09-09T16:35:10.587Z,22.09
2022-09-09T16:38:16.548Z,21.99
2022-09-09T16:41:23.022Z,21.86
2022-09-09T16:44:28.975Z,21.73
2022-09-09T16:47:35.418Z,21.59
2022-09-09T16:50:41.567Z,21.45
2022-09-09T16:53:47.830Z,21.33
2022-09-09T16:56:53.703Z,21.21
2022-09-09T17:00:00.624Z,21.08
2022-09-09T17:03:07.067Z,20.95
2022-09-09T17:06:16.023Z,20.84
2022-09-09T17:09:23.729Z,20.75
2022-09-09T17:12:29.708Z,20.66
2022-09-09T17:15:35.883Z,20.56
2022-09-09T17:18:42.242Z,20.47
2022-09-09T17:22:14.917Z,20.37
2022-09-09T17:25:15.188Z,20.24
2022-09-09T17:28:26.493Z,20.14
2022-09-09T17:31:33.736Z,20.07
2022-09-09T17:34:40.170Z,20.02
2022-09-09T17:37:46.283Z,19.93
2022-09-09T17:40:52.182Z,19.83
2022-09-09T17:43:56.709Z,19.76
2022-09-09T17:47:19.830Z,19.66
2022-09-09T17:50:26.106Z,19.54
2022-09-09T17:53:32.503Z,19.46
2022-09-09T17:56:39.915Z,19.39
2022-09-09T17:59:45.890Z,19.34
2022-09-09T18:02:51.890Z,19.31
2022-09-09T18:06:03.717Z,19.28
2022-09-09T18:09:13.356Z,19.21
2022-09-09T18:12:19.299Z,19.14
2022-09-09T18:15:33.590Z,19.07
2022-09-09T18:18:45.522Z,18.99
2022-09-09T18:21:51.737Z,18.95
2022-09-09T18:24:58.099Z,18.93
2022-09-09T18:28:04.123Z,18.91
2022-09-09T18:31:12.816Z,18.86
2022-09-09T18:34:20.250Z,18.79
2022-09-09T18:37:26.197Z,18.69
2022-09-09T18:40:31.124Z,18.62
2022-09-09T18:43:36.982Z,18.56
2022-09-09T18:46:41.897Z,18.50
2022-09-09T18:49:47.951Z,18.48
2022-09-09T18:52:54.074Z,18.48
2022-09-09T18:56:02.943Z,18.46
2022-09-09T18:59:11.687Z,18.42
2022-09-09T19:02:17.576Z,18.37
2022-09-09T19:05:21.835Z,18.34
2022-09-09T19:08:27.877Z,18.31
2022-09-09T19:11:34.166Z,18.27
2022-09-09T19:14:40.459Z,18.22
2022-09-09T19:17:46.337Z,18.19
2022-09-09T19:20:50.544Z,18.14
2022-09-09T19:24:01.047Z,18.07
2022-09-09T19:27:08.071Z,18.01
2022-09-09T19:30:14.715Z,17.98
2022-09-09T19:33:20.614Z,17.97
2022-09-09T19:36:25.524Z,17.95
2022-09-09T19:39:32.258Z,17.90
2022-09-09T19:42:38.161Z,17.86
2022-09-09T19:45:42.349Z,17.80
2022-09-09T19:48:48.834Z,17.78
2022-09-09T19:51:56.015Z,17.73
2022-09-09T19:55:01.890Z,17.65
2022-09-09T19:58:07.935Z,17.60
2022-09-09T20:01:13.162Z,17.51
2022-09-09T20:04:19.078Z,17.44
2022-09-09T20:07:24.093Z,17.35
2022-09-09T20:10:30.443Z,17.28
2022-09-09T20:13:39.138Z,17.22
2022-09-09T20:16:46.588Z,17.22
2022-09-09T20:19:52.549Z,17.21
2022-09-09T20:22:57.642Z,17.14
2022-09-09T20:26:08.013Z,17.05
2022-09-09T20:29:17.327Z,17.00
2022-09-09T20:32:23.179Z,16.96
2022-09-09T20:35:29.551Z,16.91
2022-09-09T20:38:35.685Z,16.91
2022-09-09T20:41:45.528Z,16.89
2022-09-09T20:44:51.962Z,16.83
2022-09-09T20:47:58.238Z,16.77
2022-09-09T20:51:10.105Z,16.74
2022-09-09T20:54:17.850Z,16.69
2022-09-09T20:57:24.618Z,16.64
2022-09-09T21:00:30.549Z,16.62
2022-09-09T21:03:37.202Z,16.63
2022-09-09T21:06:43.390Z,16.63
2022-09-09T21:09:49.436Z,16.62
2022-09-09T21:12:54.653Z,16.61
2022-09-09T21:16:00.932Z,16.58
2022-09-09T21:19:06.892Z,16.56
2022-09-09T21:22:14.340Z,16.52
2022-09-09T21:25:20.220Z,16.50
2022-09-09T21:28:27.852Z,16.45
2022-09-09T21:31:33.945Z,16.39
2022-09-09T21:34:42.160Z,16.39
2022-09-09T21:37:48.283Z,16.36
2022-09-09T21:40:54.318Z,16.36
2022-09-09T21:43:58.553Z,16.34
2022-09-09T21:47:04.572Z,16.31
2022-09-09T21:50:09.541Z,16.29
2022-09-09T21:53:20.449Z,16.26
2022-09-09T21:56:26.926Z,16.23
2022-09-09T21:59:33.995Z,16.18
2022-09-09T22:02:40.218Z,16.16
2022-09-09T22:05:50.719Z,16.18
2022-09-09T22:09:01.875Z,16.19
2022-09-09T22:12:08.370Z,16.17
2022-09-09T22:15:14.707Z,16.14
2022-09-09T22:18:20.566Z,16.11
2022-09-09T22:21:27.854Z,16.13
2022-09-09T22:24:34.263Z,16.16
2022-09-09T22:27:40.258Z,16.15
2022-09-09T22:30:44.464Z,16.14
2022-09-09T22:33:51.224Z,16.13
2022-09-09T22:36:57.478Z,16.13
2022-09-09T22:40:03.740Z,16.10
2022-09-09T22:43:16.761Z,16.07
2022-09-09T22:46:23.813Z,16.06
2022-09-09T22:49:30.387Z,16.06
2022-09-09T22:52:36.253Z,16.05
2022-09-09T22:55:42.324Z,16.03
2022-09-09T22:58:47.316Z,16.02
2022-09-09T23:01:53.497Z,16.00
2022-09-09T23:04:59.670Z,16.00
2022-09-09T23:08:05.611Z,16.00
2022-09-09T23:11:13.791Z,15.92
2022-09-09T23:14:19.670Z,15.87
2022-09-09T23:17:25.905Z,15.90
2022-09-09T23:20:32.343Z,15.91
2022-09-09T23:23:39.030Z,15.93
2022-09-09T23:26:46.762Z,15.93
2022-09-09T23:29:52.894Z,15.92
2022-09-09T23:32:58.738Z,15.89
2022-09-09T23:36:08.546Z,15.89
2022-09-09T23:39:14.902Z,15.92
2022-09-09T23:42:20.788Z,15.92
2022-09-09T23:45:26.635Z,15.92
2022-09-09T23:48:32.539Z,15.92
2022-09-09T23:51:39.055Z,15.93
2022-09-09T23:54:45.310Z,15.94
2022-09-09T23:57:51.907Z,15.94
